Time;durP1;ratioP1;P1;durP2;ratioP2;P2;SDS_P1;SDS_P2;PMS_P1;PMS_P2;Temp;Humidity;BMP_temperature;BMP_pressure;BME280_temperature;BME280_humidity;BME280_pressure;Samples;Min_cycle;Max_cycle;Signal;HPM_P1;HPM_P2
2021/06/15 20:42:41;;;;;;;235.30;206.77;;;;;;;25.21;60.79;98063.72;5146792;27;20394;-61
2021/06/15 20:45:10;;;;;;;7.05;3.42;;;;;;;23.43;57.86;98061.22;5103366;27;20427;-52
2021/06/15 20:47:37;;;;;;;4.70;3.67;;;;;;;23.00;58.82;98056.34;5096898;28;20257;-53
2021/06/15 20:50:04;;;;;;;4.55;3.17;;;;;;;23.53;57.74;98055.88;5068465;28;20256;-53
2021/06/15 20:52:30;;;;;;;4.43;3.17;;;;;;;23.51;57.75;98049.88;5063272;28;20237;-52
2021/06/15 20:54:57;;;;;;;3.88;3.45;;;;;;;23.31;58.25;98050.91;5064616;28;20698;-54
2021/06/15 20:57:24;;;;;;;4.32;3.92;;;;;;;22.73;60.08;98057.84;5064308;28;20241;-55
2021/06/15 20:59:52;;;;;;;4.32;3.92;;;;;;;22.66;59.96;98062.91;5063551;28;20845;-51
2021/06/15 21:02:18;;;;;;;3.92;3.40;;;;;;;22.57;60.71;98049.56;5066436;28;20395;-53
2021/06/15 21:04:45;;;;;;;5.85;4.05;;;;;;;22.78;59.72;98058.28;5063222;28;20216;-55
2021/06/15 21:07:11;;;;;;;11.77;6.82;;;;;;;23.32;58.41;98060.53;5062281;28;20245;-54
2021/06/15 21:09:39;;;;;;;5.88;4.72;;;;;;;23.33;58.15;98064.91;5066145;28;20244;-56
2021/06/15 21:12:07;;;;;;;6.15;3.90;;;;;;;22.93;59.20;98063.19;5062510;28;20327;-53
2021/06/15 21:14:33;;;;;;;4.60;4.20;;;;;;;22.80;59.29;98064.28;5065970;28;20445;-53
2021/06/15 21:17:01;;;;;;;4.95;4.45;;;;;;;22.98;59.04;98059.13;5063534;28;20251;-53
2021/06/15 21:19:28;;;;;;;6.00;4.57;;;;;;;22.66;59.35;98062.03;5063431;28;20238;-52
2021/06/15 21:21:54;;;;;;;5.28;4.35;;;;;;;22.73;59.12;98065.00;5062985;28;20244;-53
2021/06/15 21:24:22;;;;;;;7.35;4.82;;;;;;;22.37;59.88;98062.84;5064633;28;20669;-52
2021/06/15 21:26:49;;;;;;;6.75;5.20;;;;;;;22.07;60.10;98067.16;5064684;28;20224;-53
2021/06/15 21:29:15;;;;;;;5.35;4.55;;;;;;;22.42;59.92;98065.91;5065997;28;21094;-52
2021/06/15 21:31:42;;;;;;;6.97;5.57;;;;;;;22.21;60.20;98065.13;5065579;28;20474;-52
2021/06/15 21:34:10;;;;;;;7.07;5.13;;;;;;;22.29;59.17;98070.63;5064748;28;20243;-52
2021/06/15 21:36:36;;;;;;;6.57;5.32;;;;;;;21.25;63.48;98070.59;5060966;28;20232;-53
2021/06/15 21:39:03;;;;;;;9.85;5.30;;;;;;;21.80;60.33;98066.91;5063845;28;20592;-54
2021/06/15 21:41:30;;;;;;;6.13;5.13;;;;;;;21.47;61.99;98063.53;5061361;28;20244;-52
2021/06/15 21:43:57;;;;;;;5.22;4.07;;;;;;;22.40;59.50;98073.16;5064311;28;20221;-53
2021/06/15 21:46:24;;;;;;;5.63;4.20;;;;;;;22.48;58.39;98072.50;5061256;28;20248;-54
2021/06/15 21:48:50;;;;;;;7.18;4.40;;;;;;;22.62;58.67;98071.28;5066347;28;20631;-54
2021/06/15 21:51:18;;;;;;;6.18;4.70;;;;;;;22.57;58.23;98065.50;5064474;28;20613;-53
2021/06/15 21:53:46;;;;;;;4.55;4.13;;;;;;;23.00;57.66;98069.63;5051955;28;20224;-53
2021/06/15 21:56:12;;;;;;;5.15;4.35;;;;;;;23.26;56.93;98065.44;5052441;28;20339;-54
2021/06/15 21:58:39;;;;;;;5.53;4.22;;;;;;;22.59;58.67;98066.22;5048881;28;20238;-53
2021/06/15 22:01:05;;;;;;;6.93;5.68;;;;;;;21.48;60.95;98071.31;5042461;28;20234;-54
2021/06/15 22:03:32;;;;;;;9.55;6.05;;;;;;;22.35;59.42;98072.75;5043585;28;20217;-54
2021/06/15 22:05:58;;;;;;;10.23;6.60;;;;;;;21.89;60.04;98066.09;5045655;28;20263;-53
2021/06/15 22:08:26;;;;;;;8.88;6.57;;;;;;;22.16;59.54;98070.00;5046146;28;20234;-53
2021/06/15 22:10:53;;;;;;;8.00;6.15;;;;;;;22.61;58.70;98074.91;5043778;28;21123;-53
2021/06/15 22:13:19;;;;;;;8.65;5.97;;;;;;;21.89;59.64;98066.09;5042965;28;20217;-52
2021/06/15 22:15:46;;;;;;;9.38;6.97;;;;;;;21.64;60.83;98073.53;5045476;28;20241;-52
2021/06/15 22:18:12;;;;;;;7.95;6.30;;;;;;;21.95;59.74;98073.56;5045786;28;20213;-51
2021/06/15 22:20:39;;;;;;;9.02;6.53;;;;;;;21.87;60.41;98068.06;5044023;28;20252;-53
2021/06/15 22:23:06;;;;;;;7.97;6.00;;;;;;;22.00;59.74;98073.13;5046693;28;20216;-51
2021/06/15 22:25:34;;;;;;;10.85;7.18;;;;;;;21.94;59.95;98066.53;5041756;28;20250;-53
2021/06/15 22:28:01;;;;;;;11.30;5.65;;;;;;;22.30;59.26;98077.63;5041781;28;20210;-52
2021/06/15 22:30:28;;;;;;;6.85;4.65;;;;;;;22.20;58.90;98074.06;5043906;28;20237;-52
2021/06/15 22:32:57;;;;;;;5.40;4.40;;;;;;;21.96;59.02;98072.56;5047526;28;20227;-51
2021/06/15 22:35:25;;;;;;;6.80;4.55;;;;;;;21.74;59.80;98076.22;5050970;28;20870;-51
2021/06/15 22:37:51;;;;;;;6.13;4.28;;;;;;;22.12;59.47;98072.91;5052519;28;20209;-52
2021/06/15 22:40:18;;;;;;;4.82;4.03;;;;;;;21.41;60.78;98066.66;5049255;28;20952;-53
2021/06/15 22:42:46;;;;;;;4.50;4.05;;;;;;;21.34;60.70;98069.00;5050229;28;20215;-54
2021/06/15 22:45:14;;;;;;;5.10;4.18;;;;;;;21.37;60.71;98066.88;5052358;28;20221;-51
2021/06/15 22:47:41;;;;;;;4.85;4.18;;;;;;;21.38;61.13;98063.28;5051776;28;20241;-53
2021/06/15 22:50:10;;;;;;;4.72;3.92;;;;;;;21.20;61.47;98059.53;5048860;28;20253;-50
2021/06/15 22:52:36;;;;;;;4.00;3.70;;;;;;;21.51;60.62;98054.31;5049790;28;20234;-53
2021/06/15 22:55:03;;;;;;;4.32;3.90;;;;;;;21.63;60.83;98061.22;5050704;28;20640;-54
2021/06/15 22:57:30;;;;;;;4.35;3.67;;;;;;;21.87;59.05;98057.44;5048056;28;20242;-51
2021/06/15 22:59:58;;;;;;;3.78;3.33;;;;;;;21.65;60.27;98061.09;5050061;28;20723;-54
2021/06/15 23:02:24;;;;;;;5.07;3.63;;;;;;;22.12;59.07;98056.97;5048234;28;20459;-52
2021/06/15 23:04:51;;;;;;;3.83;3.50;;;;;;;21.76;59.03;98053.03;5050489;28;20218;-54
2021/06/15 23:07:18;;;;;;;4.25;3.90;;;;;;;21.49;60.04;98051.78;5049754;28;20242;-52
2021/06/15 23:09:44;;;;;;;5.00;3.83;;;;;;;20.88;62.13;98051.59;5048545;28;20741;-53
2021/06/15 23:12:11;;;;;;;5.13;3.65;;;;;;;20.45;64.00;98047.13;5049980;28;20245;-51
2021/06/15 23:14:38;;;;;;;4.95;4.13;;;;;;;20.75;62.77;98041.16;5049885;28;20212;-53
2021/06/15 23:17:06;;;;;;;6.97;4.60;;;;;;;20.27;63.29;98052.91;5051996;28;20253;-54
2021/06/15 23:19:32;;;;;;;5.30;3.78;;;;;;;19.83;64.69;98044.03;5049826;28;20909;-52
2021/06/15 23:21:59;;;;;;;5.35;3.50;;;;;;;20.67;62.72;98046.25;5048844;28;20237;-51
2021/06/15 23:24:25;;;;;;;4.72;3.90;;;;;;;20.83;62.07;98041.38;5048906;28;20214;-53
2021/06/15 23:26:52;;;;;;;5.43;4.22;;;;;;;20.38;62.94;98044.97;5049374;28;20234;-52
2021/06/15 23:29:18;;;;;;;4.05;3.70;;;;;;;20.35;63.40;98045.22;5047098;28;20266;-54
2021/06/15 23:31:45;;;;;;;4.25;3.90;;;;;;;19.95;64.40;98043.09;5050740;28;20245;-53
2021/06/15 23:34:13;;;;;;;3.92;3.60;;;;;;;20.27;63.68;98042.31;5051347;28;20216;-53
2021/06/15 23:36:39;;;;;;;4.22;3.30;;;;;;;20.53;62.81;98040.25;5046336;28;20237;-51
2021/06/15 23:39:06;;;;;;;5.97;3.78;;;;;;;20.56;63.08;98039.97;5046752;28;20226;-53
2021/06/15 23:41:32;;;;;;;4.18;3.80;;;;;;;20.51;63.18;98034.22;5048429;28;20244;-53
2021/06/15 23:43:59;;;;;;;4.30;3.80;;;;;;;20.62;62.94;98043.13;5048576;28;20699;-51
2021/06/15 23:46:25;;;;;;;4.00;3.40;;;;;;;20.49;63.17;98040.59;5050692;28;20245;-51
2021/06/15 23:48:52;;;;;;;4.32;3.92;;;;;;;21.21;61.22;98036.47;5050445;28;20229;-53
2021/06/15 23:51:20;;;;;;;4.10;3.70;;;;;;;21.16;60.81;98028.94;5046309;28;20237;-52
2021/06/15 23:53:47;;;;;;;4.38;3.60;;;;;;;21.03;61.11;98034.41;5047429;28;20233;-54
2021/06/15 23:56:13;;;;;;;4.47;3.75;;;;;;;20.73;62.30;98033.34;5049526;28;20238;-53
2021/06/15 23:58:40;;;;;;;3.88;3.47;;;;;;;20.73;61.81;98028.03;5050929;28;20238;-52
